ADDS METAR Data INFO
IDs: Format: Raw Decoded Include TAF

Data at: 2004 UTC 19 Oct 2017

KCIN 191955Z AUTO 16011G16KT 8SM CLR 33/20 A3002 RMK AO2
KCIN 191935Z AUTO 15013KT 6SM HZ CLR 32/19 A3003 RMK AO2
KCIN 191915Z AUTO 15012G18KT 9SM CLR 31/18 A3004 RMK AO2
KCIN 191855Z AUTO 14013KT 5SM HZ CLR 27/13 A3005 RMK AO2
KCIN 191835Z AUTO 16015G20KT 3SM HZ CLR 27/13 A3006 RMK AO2
KCIN 191815Z AUTO 14014KT 7SM CLR 28/14 A3006 RMK AO2
KCIN 191755Z AUTO 15014KT 3SM HZ FEW003 29/15 A3007 RMK AO2
KCIN 191735Z AUTO 6SM HZ CLR 28/14 A3008 RMK AO2
KCIN 191715Z AUTO 14015G22KT 3SM HZ CLR 27/13 A3009 RMK AO2
KCIN 191655Z AUTO 15015KT 5SM HZ CLR 27/12 A3010 RMK AO2
KCIN 191635Z AUTO 15018KT 3SM HZ CLR 26/11 A3010 RMK AO2
KCIN 191615Z AUTO 14009G16KT 3SM HZ CLR 25/10 A3011 RMK AO2
KCIN 191555Z AUTO 15015KT 8SM CLR 24/10 A3011 RMK AO2
KCIN 191535Z AUTO 14015KT 2 1/2SM HZ CLR 23/10 A3011 RMK AO2 VIS 1 3/4V5
KCIN 191515Z AUTO 15013KT 5SM HZ CLR 21/11 A3011 RMK AO2
KCIN 191455Z AUTO 14012KT 5SM HZ CLR 20/12 A3011 RMK AO2
KCIN 191435Z AUTO 14009KT 4SM HZ CLR 18/13 A3011 RMK AO2
KCIN 191415Z AUTO 14006KT 3SM HZ CLR 16/13 A3011 RMK AO2
KCIN 191355Z AUTO 16004KT 8SM CLR 13/13 A3011 RMK AO2
KCIN 191335Z AUTO 00000KT 6SM BR CLR 11/11 A3010 RMK AO2
KCIN 191315Z AUTO 00000KT 8SM CLR 09/09 A3010 RMK AO2
KCIN 191255Z AUTO 00000KT 9SM CLR 09/09 A3009 RMK AO2
KCIN 191235Z AUTO 00000KT 7SM CLR 08/08 A3009 RMK AO2
KCIN 191215Z AUTO 00000KT 10SM CLR 09/09 A3009 RMK AO2
KCIN 191155Z AUTO 00000KT 10SM CLR 09/09 A3009 RMK AO2
KCIN 191135Z AUTO 00000KT 10SM CLR 09/09 A3009 RMK AO2
KCIN 191115Z AUTO 00000KT 10SM CLR 08/08 A3009 RMK AO2
KCIN 191055Z AUTO 00000KT 8SM CLR 09/09 A3008 RMK AO2
KCIN 191035Z AUTO 28003KT 9SM CLR 09/09 A3008 RMK AO2
KCIN 191015Z AUTO 00000KT 10SM CLR 10/10 A3008 RMK AO2
KCIN 190955Z AUTO 00000KT 10SM CLR 09/09 A3008 RMK AO2
KCIN 190935Z AUTO 00000KT 10SM CLR 10/10 A3008 RMK AO2
KCIN 190915Z AUTO 00000KT 10SM CLR 10/10 A3007 RMK AO2
KCIN 190855Z AUTO 00000KT 10SM CLR 11/11 A3008 RMK AO2
KCIN 190835Z AUTO 00000KT 10SM CLR 11/11 A3008 RMK AO2
KCIN 190815Z AUTO 30004KT 10SM CLR 11/11 A3007 RMK AO2
KCIN 190755Z AUTO 00000KT 10SM CLR 11/11 A3007 RMK AO2
KCIN 190735Z AUTO 28005KT 10SM CLR 11/11 A3006 RMK AO2
KCIN 190715Z AUTO 29005KT 10SM CLR 11/11 A3006 RMK AO2
KCIN 190655Z AUTO 30004KT 10SM CLR 11/11 A3006 RMK AO2
KCIN 190635Z AUTO 00000KT 10SM CLR 12/12 A3005 RMK AO2
KCIN 190615Z AUTO 00000KT 10SM CLR 12/12 A3005 RMK AO2
KCIN 190555Z AUTO 00000KT 10SM CLR 11/11 A3005 RMK AO2
KCIN 190535Z AUTO 00000KT 10SM CLR 12/12 A3005 RMK AO2
KCIN 190515Z AUTO 00000KT 10SM CLR 13/13 A3005 RMK AO2
KCIN 190455Z AUTO 00000KT 10SM CLR 13/13 A3005 RMK AO2
KCIN 190435Z AUTO 00000KT 10SM CLR 13/13 A3005 RMK AO2
KCIN 190415Z AUTO 00000KT 10SM CLR 14/14 A3005 RMK AO2
KCIN 190355Z AUTO 30003KT 10SM CLR 14/14 A3004 RMK AO2
KCIN 190335Z AUTO 30004KT 10SM CLR 14/14 A3004 RMK AO2
KCIN 190315Z AUTO 28004KT 10SM CLR 15/14 A3004 RMK AO2
KCIN 190255Z AUTO 00000KT 10SM CLR 15/15 A3004 RMK AO2
KCIN 190235Z AUTO 00000KT 10SM CLR 16/15 A3003 RMK AO2
KCIN 190215Z AUTO 00000KT 10SM CLR 18/16 A3003 RMK AO2
KCIN 190155Z AUTO 00000KT 10SM CLR 19/18 A3002 RMK AO2
KCIN 190135Z AUTO 29005KT 10SM CLR 22/20 A3002 RMK AO2
KCIN 190115Z AUTO 30005KT 10SM CLR 23/20 A3002 RMK AO2
KCIN 190055Z AUTO 30004KT 10SM CLR 24/20 A3001 RMK AO2
KCIN 190035Z AUTO 32006KT 10SM CLR 25/20 A3000 RMK AO2
KCIN 190015Z AUTO 32006KT 10SM CLR 26/20 A3000 RMK AO2
KCIN 182355Z AUTO 31005KT 10SM CLR 27/20 A2999 RMK AO2
KCIN 182335Z AUTO 31006KT 10SM CLR 29/21 A2998 RMK AO2
KCIN 182315Z AUTO 32005KT 10SM CLR 30/21 A2997 RMK AO2
KCIN 182255Z AUTO 33008KT 10SM CLR 31/21 A2995 RMK AO2
KCIN 182235Z AUTO 33009KT 10SM CLR 31/20 A2994 RMK AO2
KCIN 182215Z AUTO 33009KT 10SM CLR 33/21 A2994 RMK AO2
KCIN 182155Z AUTO 32009KT 10SM CLR 34/22 A2993 RMK AO2
KCIN 182135Z AUTO 30008KT 10SM CLR 34/22 A2993 RMK AO2
KCIN 182115Z AUTO 25010KT 10SM CLR 34/22 A2992 RMK AO2
KCIN 182055Z AUTO 22011G16KT 10SM CLR 34/21 A2991 RMK AO2
KCIN 182035Z AUTO 22011KT 9SM CLR 34/21 A2991 RMK AO2
KCIN 182015Z AUTO 22014G19KT 9SM CLR 32/18 A2991 RMK AO2
KCIN 181955Z AUTO 24013KT 10SM CLR 31/17 A2991 RMK AO2
KCIN 181935Z AUTO 24013KT 10SM CLR 30/16 A2990 RMK AO2
KCIN 181915Z AUTO 22012G19KT 10SM CLR 29/16 A2990 RMK AO2
KCIN 181855Z AUTO 22014KT 10SM CLR 29/15 A2990 RMK AO2
KCIN 181835Z AUTO 23013KT 10SM CLR 26/12 A2991 RMK AO2
KCIN 181815Z AUTO 21014G20KT 10SM CLR 25/11 A2990 RMK AO2
KCIN 181755Z AUTO 21013KT 110V220 10SM CLR 25/11 A2990 RMK AO2
KCIN 181735Z AUTO 21016KT 10SM CLR 24/11 A2990 RMK AO2
KCIN 181715Z AUTO 21013KT 10SM CLR 23/12 A2990 RMK AO2
KCIN 181655Z AUTO 20013G20KT 10SM CLR 22/12 A2990 RMK AO2
KCIN 181635Z AUTO 21015KT 9SM CLR 21/11 A2990 RMK AO2
KCIN 181615Z AUTO 19017KT 10SM CLR 21/11 A2990 RMK AO2
KCIN 181555Z AUTO 21014G21KT 10SM CLR 20/11 A2992 RMK AO2
KCIN 181535Z AUTO 22014G20KT 10SM CLR 19/10 A2992 RMK AO2
KCIN 181515Z AUTO 22016KT 10SM CLR 18/10 A2991 RMK AO2
KCIN 181455Z AUTO 20015KT 10SM CLR 17/11 A2991 RMK AO2
KCIN 181435Z AUTO 21013G21KT 10SM CLR 16/11 A2991 RMK AO2
KCIN 181415Z AUTO 21019G24KT 10SM CLR 15/11 A2991 RMK AO2
KCIN 181355Z AUTO 20017KT 10SM CLR 14/11 A2990 RMK AO2
KCIN 181335Z AUTO 21016G21KT 10SM CLR 13/10 A2990 RMK AO2
KCIN 181315Z AUTO 20013KT 10SM CLR 13/10 A2991 RMK AO2
KCIN 181255Z AUTO 21015G21KT 10SM CLR 12/10 A2991 RMK AO2
KCIN 181235Z AUTO 20013G19KT 10SM CLR 12/10 A2991 RMK AO2
KCIN 181215Z AUTO 20011KT 10SM CLR 12/10 A2992 RMK AO2
KCIN 181155Z AUTO 21012KT 10SM CLR 12/10 A2992 RMK AO2
KCIN 181135Z AUTO 21013KT 10SM CLR 12/10 A2992 RMK AO2
KCIN 181115Z AUTO 21013KT 10SM CLR 13/10 A2992 RMK AO2
KCIN 181055Z AUTO 20013KT 10SM CLR 13/10 A2992 RMK AO2
KCIN 181035Z AUTO 21013KT 10SM CLR 13/10 A2992 RMK AO2
KCIN 181015Z AUTO 20013G18KT 10SM CLR 13/10 A2992 RMK AO2
KCIN 180955Z AUTO 21015G20KT 10SM CLR 13/10 A2992 RMK AO2
KCIN 180935Z AUTO 21011KT 10SM CLR 13/10 A2992 RMK AO2
KCIN 180915Z AUTO 21012KT 10SM CLR 13/11 A2992 RMK AO2
KCIN 180855Z AUTO 20008KT 10SM CLR 13/11 A2992 RMK AO2
KCIN 180835Z AUTO 20009KT 10SM CLR 12/11 A2993 RMK AO2
KCIN 180815Z AUTO 19008KT 10SM CLR 12/10 A2993 RMK AO2